sensor_id;sensor_type;location;lat;lon;timestamp;P1;durP1;ratioP1;P2;durP2;ratioP2
46931;SDS011;32670;51.464;11.964;2022-11-20T00:01:06;15.60;;;14.27;;
46931;SDS011;32670;51.464;11.964;2022-11-20T00:03:31;16.07;;;14.57;;
46931;SDS011;32670;51.464;11.964;2022-11-20T00:06:00;15.03;;;13.70;;
46931;SDS011;32670;51.464;11.964;2022-11-20T00:08:30;15.57;;;14.27;;
46931;SDS011;32670;51.464;11.964;2022-11-20T00:10:56;15.70;;;14.40;;
46931;SDS011;32670;51.464;11.964;2022-11-20T00:13:22;15.13;;;13.83;;
46931;SDS011;32670;51.464;11.964;2022-11-20T00:15:47;14.23;;;13.03;;
46931;SDS011;32670;51.464;11.964;2022-11-20T00:18:13;14.83;;;13.53;;
46931;SDS011;32670;51.464;11.964;2022-11-20T00:20:38;14.47;;;13.27;;
46931;SDS011;32670;51.464;11.964;2022-11-20T00:23:04;14.47;;;13.27;;
46931;SDS011;32670;51.464;11.964;2022-11-20T00:25:30;14.70;;;13.47;;
46931;SDS011;32670;51.464;11.964;2022-11-20T00:27:58;14.10;;;12.90;;
46931;SDS011;32670;51.464;11.964;2022-11-20T00:30:23;14.20;;;13.00;;
46931;SDS011;32670;51.464;11.964;2022-11-20T00:32:49;13.53;;;12.43;;
46931;SDS011;32670;51.464;11.964;2022-11-20T00:35:14;14.03;;;12.83;;
46931;SDS011;32670;51.464;11.964;2022-11-20T00:37:40;12.70;;;11.57;;
46931;SDS011;32670;51.464;11.964;2022-11-20T00:40:05;12.53;;;11.53;;
46931;SDS011;32670;51.464;11.964;2022-11-20T00:42:31;13.10;;;12.00;;
46931;SDS011;32670;51.464;11.964;2022-11-20T00:44:57;12.80;;;11.70;;
46931;SDS011;32670;51.464;11.964;2022-11-20T00:47:23;12.97;;;11.87;;
46931;SDS011;32670;51.464;11.964;2022-11-20T00:49:48;12.83;;;11.73;;
46931;SDS011;32670;51.464;11.964;2022-11-20T00:52:14;12.27;;;11.27;;
46931;SDS011;32670;51.464;11.964;2022-11-20T00:54:39;12.77;;;11.67;;
46931;SDS011;32670;51.464;11.964;2022-11-20T00:57:05;12.77;;;11.77;;
46931;SDS011;32670;51.464;11.964;2022-11-20T00:59:30;12.03;;;11.03;;
46931;SDS011;32670;51.464;11.964;2022-11-20T01:01:56;12.23;;;11.23;;
46931;SDS011;32670;51.464;11.964;2022-11-20T01:04:21;11.47;;;10.60;;
46931;SDS011;32670;51.464;11.964;2022-11-20T01:06:47;11.60;;;10.70;;
46931;SDS011;32670;51.464;11.964;2022-11-20T01:09:13;11.73;;;10.73;;
46931;SDS011;32670;51.464;11.964;2022-11-20T01:11:42;11.50;;;10.60;;
46931;SDS011;32670;51.464;11.964;2022-11-20T01:14:11;11.53;;;10.53;;
46931;SDS011;32670;51.464;11.964;2022-11-20T01:16:38;11.67;;;10.67;;
46931;SDS011;32670;51.464;11.964;2022-11-20T01:19:16;11.17;;;10.27;;
46931;SDS011;32670;51.464;11.964;2022-11-20T01:21:43;10.80;;;10.00;;
46931;SDS011;32670;51.464;11.964;2022-11-20T01:24:11;11.07;;;10.17;;
46931;SDS011;32670;51.464;11.964;2022-11-20T01:26:38;10.87;;;9.97;;
46931;SDS011;32670;51.464;11.964;2022-11-20T01:29:13;10.50;;;9.70;;
46931;SDS011;32670;51.464;11.964;2022-11-20T01:31:40;10.70;;;9.70;;
46931;SDS011;32670;51.464;11.964;2022-11-20T01:34:07;10.63;;;9.73;;
46931;SDS011;32670;51.464;11.964;2022-11-20T01:36:35;10.07;;;9.27;;
46931;SDS011;32670;51.464;11.964;2022-11-20T01:39:03;10.57;;;9.67;;
46931;SDS011;32670;51.464;11.964;2022-11-20T01:41:31;9.90;;;9.10;;
46931;SDS011;32670;51.464;11.964;2022-11-20T01:44:19;9.23;;;8.50;;
46931;SDS011;32670;51.464;11.964;2022-11-20T01:46:59;10.13;;;9.33;;
46931;SDS011;32670;51.464;11.964;2022-11-20T01:52:05;9.27;;;8.47;;
46931;SDS011;32670;51.464;11.964;2022-11-20T01:54:42;9.63;;;8.83;;
46931;SDS011;32670;51.464;11.964;2022-11-20T01:57:20;8.73;;;8.03;;
46931;SDS011;32670;51.464;11.964;2022-11-20T01:59:50;9.00;;;8.30;;
46931;SDS011;32670;51.464;11.964;2022-11-20T02:02:24;8.87;;;8.07;;
46931;SDS011;32670;51.464;11.964;2022-11-20T02:04:51;8.93;;;8.23;;
46931;SDS011;32670;51.464;11.964;2022-11-20T02:07:21;8.70;;;8.00;;
46931;SDS011;32670;51.464;11.964;2022-11-20T02:09:48;8.30;;;7.70;;
46931;SDS011;32670;51.464;11.964;2022-11-20T02:12:15;8.50;;;7.87;;
46931;SDS011;32670;51.464;11.964;2022-11-20T02:14:59;8.93;;;8.23;;
46931;SDS011;32670;51.464;11.964;2022-11-20T02:17:24;8.73;;;8.03;;
46931;SDS011;32670;51.464;11.964;2022-11-20T02:19:50;8.53;;;7.83;;
46931;SDS011;32670;51.464;11.964;2022-11-20T02:22:21;8.00;;;7.40;;
46931;SDS011;32670;51.464;11.964;2022-11-20T02:24:56;8.00;;;7.33;;
46931;SDS011;32670;51.464;11.964;2022-11-20T02:27:25;8.67;;;7.97;;
46931;SDS011;32670;51.464;11.964;2022-11-20T02:29:53;8.07;;;7.47;;
46931;SDS011;32670;51.464;11.964;2022-11-20T02:32:23;8.63;;;7.83;;
46931;SDS011;32670;51.464;11.964;2022-11-20T02:34:57;7.47;;;6.90;;
46931;SDS011;32670;51.464;11.964;2022-11-20T02:37:23;7.67;;;7.07;;
46931;SDS011;32670;51.464;11.964;2022-11-20T02:39:55;8.50;;;7.80;;
46931;SDS011;32670;51.464;11.964;2022-11-20T02:42:21;7.23;;;6.67;;
46931;SDS011;32670;51.464;11.964;2022-11-20T02:44:46;6.97;;;6.43;;
46931;SDS011;32670;51.464;11.964;2022-11-20T02:47:12;7.37;;;6.77;;
46931;SDS011;32670;51.464;11.964;2022-11-20T02:49:40;7.77;;;7.07;;
46931;SDS011;32670;51.464;11.964;2022-11-20T02:52:08;7.37;;;6.77;;
46931;SDS011;32670;51.464;11.964;2022-11-20T02:54:34;6.80;;;6.30;;
46931;SDS011;32670;51.464;11.964;2022-11-20T02:57:00;6.83;;;6.33;;
46931;SDS011;32670;51.464;11.964;2022-11-20T02:59:25;7.17;;;6.57;;
46931;SDS011;32670;51.464;11.964;2022-11-20T03:01:50;6.60;;;6.10;;
46931;SDS011;32670;51.464;11.964;2022-11-20T03:04:16;6.70;;;6.20;;
46931;SDS011;32670;51.464;11.964;2022-11-20T03:06:42;6.80;;;6.20;;
46931;SDS011;32670;51.464;11.964;2022-11-20T03:09:07;6.67;;;6.17;;
46931;SDS011;32670;51.464;11.964;2022-11-20T03:11:33;6.73;;;6.23;;
46931;SDS011;32670;51.464;11.964;2022-11-20T03:14:01;6.23;;;5.73;;
46931;SDS011;32670;51.464;11.964;2022-11-20T03:16:27;6.70;;;6.20;;
46931;SDS011;32670;51.464;11.964;2022-11-20T03:18:53;6.60;;;6.10;;
46931;SDS011;32670;51.464;11.964;2022-11-20T03:21:18;6.73;;;6.23;;
46931;SDS011;32670;51.464;11.964;2022-11-20T03:23:44;6.47;;;5.97;;
46931;SDS011;32670;51.464;11.964;2022-11-20T03:26:13;6.17;;;5.77;;
46931;SDS011;32670;51.464;11.964;2022-11-20T03:28:41;6.33;;;5.83;;
46931;SDS011;32670;51.464;11.964;2022-11-20T03:31:11;6.20;;;5.70;;
46931;SDS011;32670;51.464;11.964;2022-11-20T03:33:39;6.03;;;5.63;;
46931;SDS011;32670;51.464;11.964;2022-11-20T03:36:07;6.20;;;5.70;;
46931;SDS011;32670;51.464;11.964;2022-11-20T03:38:35;5.93;;;5.43;;
46931;SDS011;32670;51.464;11.964;2022-11-20T03:41:02;6.43;;;5.93;;
46931;SDS011;32670;51.464;11.964;2022-11-20T03:43:32;6.17;;;5.67;;
46931;SDS011;32670;51.464;11.964;2022-11-20T03:45:58;5.30;;;4.90;;
46931;SDS011;32670;51.464;11.964;2022-11-20T03:48:24;5.80;;;5.40;;
46931;SDS011;32670;51.464;11.964;2022-11-20T03:50:51;5.87;;;5.47;;
46931;SDS011;32670;51.464;11.964;2022-11-20T03:53:17;5.60;;;5.20;;
46931;SDS011;32670;51.464;11.964;2022-11-20T03:55:43;5.43;;;5.03;;
46931;SDS011;32670;51.464;11.964;2022-11-20T03:58:08;6.00;;;5.50;;
46931;SDS011;32670;51.464;11.964;2022-11-20T04:00:34;5.43;;;5.03;;
46931;SDS011;32670;51.464;11.964;2022-11-20T04:03:00;5.10;;;4.70;;
46931;SDS011;32670;51.464;11.964;2022-11-20T04:05:26;5.50;;;5.10;;
46931;SDS011;32670;51.464;11.964;2022-11-20T04:07:52;5.37;;;4.97;;
46931;SDS011;32670;51.464;11.964;2022-11-20T04:10:17;4.97;;;4.67;;
46931;SDS011;32670;51.464;11.964;2022-11-20T04:12:43;5.60;;;5.20;;
46931;SDS011;32670;51.464;11.964;2022-11-20T04:15:08;5.40;;;5.00;;
46931;SDS011;32670;51.464;11.964;2022-11-20T04:17:34;5.20;;;4.80;;
46931;SDS011;32670;51.464;11.964;2022-11-20T04:20:00;5.03;;;4.63;;
46931;SDS011;32670;51.464;11.964;2022-11-20T04:22:26;5.10;;;4.70;;
46931;SDS011;32670;51.464;11.964;2022-11-20T04:24:51;4.53;;;4.23;;
46931;SDS011;32670;51.464;11.964;2022-11-20T04:27:17;5.33;;;4.93;;
46931;SDS011;32670;51.464;11.964;2022-11-20T04:29:42;5.23;;;4.83;;
46931;SDS011;32670;51.464;11.964;2022-11-20T04:32:08;4.90;;;4.50;;
46931;SDS011;32670;51.464;11.964;2022-11-20T04:34:33;4.73;;;4.40;;
46931;SDS011;32670;51.464;11.964;2022-11-20T04:37:00;4.50;;;4.20;;
46931;SDS011;32670;51.464;11.964;2022-11-20T04:39:25;5.00;;;4.60;;
46931;SDS011;32670;51.464;11.964;2022-11-20T04:41:51;4.57;;;4.27;;
46931;SDS011;32670;51.464;11.964;2022-11-20T04:44:36;4.63;;;4.23;;
46931;SDS011;32670;51.464;11.964;2022-11-20T04:47:02;5.00;;;4.60;;
46931;SDS011;32670;51.464;11.964;2022-11-20T04:49:27;4.33;;;4.03;;
46931;SDS011;32670;51.464;11.964;2022-11-20T04:51:53;4.47;;;4.17;;
46931;SDS011;32670;51.464;11.964;2022-11-20T04:54:19;4.80;;;4.40;;
46931;SDS011;32670;51.464;11.964;2022-11-20T04:56:47;4.20;;;3.90;;
46931;SDS011;32670;51.464;11.964;2022-11-20T04:59:13;4.57;;;4.17;;
46931;SDS011;32670;51.464;11.964;2022-11-20T05:01:38;4.53;;;4.23;;
46931;SDS011;32670;51.464;11.964;2022-11-20T05:04:04;3.90;;;3.60;;
46931;SDS011;32670;51.464;11.964;2022-11-20T05:06:30;4.40;;;4.00;;
46931;SDS011;32670;51.464;11.964;2022-11-20T05:08:56;4.20;;;3.90;;
46931;SDS011;32670;51.464;11.964;2022-11-20T05:11:22;4.07;;;3.77;;
46931;SDS011;32670;51.464;11.964;2022-11-20T05:13:49;3.90;;;3.60;;
46931;SDS011;32670;51.464;11.964;2022-11-20T05:16:21;4.13;;;3.83;;
46931;SDS011;32670;51.464;11.964;2022-11-20T05:18:48;4.20;;;3.90;;
46931;SDS011;32670;51.464;11.964;2022-11-20T05:21:14;4.17;;;3.87;;
46931;SDS011;32670;51.464;11.964;2022-11-20T05:23:40;3.80;;;3.50;;
46931;SDS011;32670;51.464;11.964;2022-11-20T05:26:07;3.90;;;3.60;;
46931;SDS011;32670;51.464;11.964;2022-11-20T05:28:37;3.87;;;3.57;;
46931;SDS011;32670;51.464;11.964;2022-11-20T05:33:35;4.33;;;3.97;;
46931;SDS011;32670;51.464;11.964;2022-11-20T05:36:02;4.10;;;3.63;;
46931;SDS011;32670;51.464;11.964;2022-11-20T05:38:28;3.80;;;3.50;;
46931;SDS011;32670;51.464;11.964;2022-11-20T05:40:54;3.77;;;3.47;;
46931;SDS011;32670;51.464;11.964;2022-11-20T05:43:20;3.60;;;3.40;;
46931;SDS011;32670;51.464;11.964;2022-11-20T05:45:54;3.90;;;3.60;;
46931;SDS011;32670;51.464;11.964;2022-11-20T05:48:20;3.50;;;3.30;;
46931;SDS011;32670;51.464;11.964;2022-11-20T05:50:45;3.73;;;3.43;;
46931;SDS011;32670;51.464;11.964;2022-11-20T05:53:12;3.60;;;3.40;;
46931;SDS011;32670;51.464;11.964;2022-11-20T05:55:38;3.40;;;3.20;;
46931;SDS011;32670;51.464;11.964;2022-11-20T05:58:04;3.63;;;3.43;;
46931;SDS011;32670;51.464;11.964;2022-11-20T06:00:29;3.20;;;3.00;;
46931;SDS011;32670;51.464;11.964;2022-11-20T06:02:55;3.27;;;3.07;;
46931;SDS011;32670;51.464;11.964;2022-11-20T06:05:20;3.17;;;2.97;;
46931;SDS011;32670;51.464;11.964;2022-11-20T06:07:45;3.13;;;2.93;;
46931;SDS011;32670;51.464;11.964;2022-11-20T06:10:11;3.30;;;3.10;;
46931;SDS011;32670;51.464;11.964;2022-11-20T06:12:36;3.33;;;3.13;;
46931;SDS011;32670;51.464;11.964;2022-11-20T06:15:02;3.17;;;2.97;;
46931;SDS011;32670;51.464;11.964;2022-11-20T06:17:29;3.27;;;3.07;;
46931;SDS011;32670;51.464;11.964;2022-11-20T06:19:54;3.10;;;2.90;;
46931;SDS011;32670;51.464;11.964;2022-11-20T06:22:20;3.30;;;3.10;;
46931;SDS011;32670;51.464;11.964;2022-11-20T06:24:46;2.73;;;2.53;;
46931;SDS011;32670;51.464;11.964;2022-11-20T06:27:12;2.93;;;2.73;;
46931;SDS011;32670;51.464;11.964;2022-11-20T06:29:37;3.30;;;3.10;;
46931;SDS011;32670;51.464;11.964;2022-11-20T06:32:03;3.07;;;2.87;;
46931;SDS011;32670;51.464;11.964;2022-11-20T06:34:28;3.13;;;2.93;;
46931;SDS011;32670;51.464;11.964;2022-11-20T06:36:54;3.00;;;2.80;;
46931;SDS011;32670;51.464;11.964;2022-11-20T06:39:19;2.90;;;2.70;;
46931;SDS011;32670;51.464;11.964;2022-11-20T06:41:45;2.83;;;2.63;;
46931;SDS011;32670;51.464;11.964;2022-11-20T06:44:10;2.80;;;2.60;;
46931;SDS011;32670;51.464;11.964;2022-11-20T06:46:36;3.00;;;2.80;;
46931;SDS011;32670;51.464;11.964;2022-11-20T06:49:01;3.00;;;2.80;;
46931;SDS011;32670;51.464;11.964;2022-11-20T06:51:27;2.97;;;2.77;;
46931;SDS011;32670;51.464;11.964;2022-11-20T06:53:53;3.20;;;3.00;;
46931;SDS011;32670;51.464;11.964;2022-11-20T06:56:19;2.80;;;2.60;;
46931;SDS011;32670;51.464;11.964;2022-11-20T06:58:45;2.90;;;2.70;;
46931;SDS011;32670;51.464;11.964;2022-11-20T07:01:11;3.00;;;2.73;;
46931;SDS011;32670;51.464;11.964;2022-11-20T07:03:38;2.53;;;2.43;;
46931;SDS011;32670;51.464;11.964;2022-11-20T07:06:05;2.80;;;2.60;;
46931;SDS011;32670;51.464;11.964;2022-11-20T07:08:31;2.83;;;2.63;;
46931;SDS011;32670;51.464;11.964;2022-11-20T07:10:57;3.07;;;2.87;;
46931;SDS011;32670;51.464;11.964;2022-11-20T07:13:25;2.80;;;2.60;;
46931;SDS011;32670;51.464;11.964;2022-11-20T07:15:51;5.07;;;2.70;;
46931;SDS011;32670;51.464;11.964;2022-11-20T07:18:16;2.80;;;2.60;;
46931;SDS011;32670;51.464;11.964;2022-11-20T07:20:42;4.97;;;3.90;;
46931;SDS011;32670;51.464;11.964;2022-11-20T07:23:07;11.93;;;10.93;;
46931;SDS011;32670;51.464;11.964;2022-11-20T07:25:33;6.87;;;6.37;;
46931;SDS011;32670;51.464;11.964;2022-11-20T07:27:59;5.83;;;5.13;;
46931;SDS011;32670;51.464;11.964;2022-11-20T07:30:26;6.10;;;5.37;;
46931;SDS011;32670;51.464;11.964;2022-11-20T07:32:53;5.23;;;4.73;;
46931;SDS011;32670;51.464;11.964;2022-11-20T07:35:19;4.77;;;4.37;;
46931;SDS011;32670;51.464;11.964;2022-11-20T07:37:45;5.53;;;4.37;;
46931;SDS011;32670;51.464;11.964;2022-11-20T07:40:12;4.73;;;4.20;;
46931;SDS011;32670;51.464;11.964;2022-11-20T07:42:38;4.20;;;3.90;;
46931;SDS011;32670;51.464;11.964;2022-11-20T07:45:04;4.27;;;3.87;;
46931;SDS011;32670;51.464;11.964;2022-11-20T07:47:34;4.20;;;3.80;;
46931;SDS011;32670;51.464;11.964;2022-11-20T07:50:01;3.90;;;3.60;;
46931;SDS011;32670;51.464;11.964;2022-11-20T07:52:26;4.57;;;4.13;;
46931;SDS011;32670;51.464;11.964;2022-11-20T07:54:52;5.27;;;3.60;;
46931;SDS011;32670;51.464;11.964;2022-11-20T07:57:17;4.73;;;3.20;;
46931;SDS011;32670;51.464;11.964;2022-11-20T07:59:43;4.47;;;3.90;;
46931;SDS011;32670;51.464;11.964;2022-11-20T08:02:09;5.87;;;4.00;;
46931;SDS011;32670;51.464;11.964;2022-11-20T08:04:36;4.10;;;3.80;;
46931;SDS011;32670;51.464;11.964;2022-11-20T08:07:01;4.93;;;4.30;;
46931;SDS011;32670;51.464;11.964;2022-11-20T08:09:27;6.07;;;4.77;;
46931;SDS011;32670;51.464;11.964;2022-11-20T08:11:53;6.20;;;4.67;;
46931;SDS011;32670;51.464;11.964;2022-11-20T08:14:38;5.77;;;5.10;;
46931;SDS011;32670;51.464;11.964;2022-11-20T08:17:03;7.30;;;6.40;;
46931;SDS011;32670;51.464;11.964;2022-11-20T08:19:28;7.27;;;6.47;;
46931;SDS011;32670;51.464;11.964;2022-11-20T08:21:54;7.50;;;6.70;;
46931;SDS011;32670;51.464;11.964;2022-11-20T08:24:20;7.67;;;6.83;;
46931;SDS011;32670;51.464;11.964;2022-11-20T08:26:46;7.73;;;6.90;;
46931;SDS011;32670;51.464;11.964;2022-11-20T08:29:11;8.40;;;7.70;;
46931;SDS011;32670;51.464;11.964;2022-11-20T08:31:37;8.10;;;7.40;;
46931;SDS011;32670;51.464;11.964;2022-11-20T08:34:02;9.80;;;8.20;;
46931;SDS011;32670;51.464;11.964;2022-11-20T08:36:28;10.47;;;8.63;;
46931;SDS011;32670;51.464;11.964;2022-11-20T08:38:54;8.47;;;7.50;;
46931;SDS011;32670;51.464;11.964;2022-11-20T08:41:20;10.37;;;8.67;;
46931;SDS011;32670;51.464;11.964;2022-11-20T08:43:55;9.83;;;8.40;;
46931;SDS011;32670;51.464;11.964;2022-11-20T08:46:25;9.20;;;8.30;;
46931;SDS011;32670;51.464;11.964;2022-11-20T08:48:51;9.90;;;8.90;;
46931;SDS011;32670;51.464;11.964;2022-11-20T08:51:17;10.13;;;8.97;;
46931;SDS011;32670;51.464;11.964;2022-11-20T08:53:44;10.33;;;9.33;;
46931;SDS011;32670;51.464;11.964;2022-11-20T08:56:09;10.63;;;9.67;;
46931;SDS011;32670;51.464;11.964;2022-11-20T08:58:36;11.63;;;10.60;;
46931;SDS011;32670;51.464;11.964;2022-11-20T09:01:02;11.73;;;10.63;;
46931;SDS011;32670;51.464;11.964;2022-11-20T09:03:27;12.27;;;10.83;;
46931;SDS011;32670;51.464;11.964;2022-11-20T09:06:00;13.00;;;11.70;;
46931;SDS011;32670;51.464;11.964;2022-11-20T09:08:27;12.50;;;11.23;;
46931;SDS011;32670;51.464;11.964;2022-11-20T09:10:54;12.63;;;11.30;;
46931;SDS011;32670;51.464;11.964;2022-11-20T09:13:20;13.97;;;12.53;;
46931;SDS011;32670;51.464;11.964;2022-11-20T09:15:47;12.93;;;11.63;;
46931;SDS011;32670;51.464;11.964;2022-11-20T09:18:17;12.67;;;11.50;;
46931;SDS011;32670;51.464;11.964;2022-11-20T09:20:43;13.43;;;12.10;;
46931;SDS011;32670;51.464;11.964;2022-11-20T09:23:09;19.90;;;12.13;;
46931;SDS011;32670;51.464;11.964;2022-11-20T09:25:34;14.23;;;12.83;;
46931;SDS011;32670;51.464;11.964;2022-11-20T09:27:59;15.40;;;12.97;;
46931;SDS011;32670;51.464;11.964;2022-11-20T09:30:25;14.47;;;13.07;;
46931;SDS011;32670;51.464;11.964;2022-11-20T09:32:51;15.23;;;13.00;;
46931;SDS011;32670;51.464;11.964;2022-11-20T09:35:17;14.37;;;12.87;;
46931;SDS011;32670;51.464;11.964;2022-11-20T09:37:43;14.33;;;12.83;;
46931;SDS011;32670;51.464;11.964;2022-11-20T09:40:19;14.50;;;13.13;;
46931;SDS011;32670;51.464;11.964;2022-11-20T09:45:54;15.73;;;14.13;;
46931;SDS011;32670;51.464;11.964;2022-11-20T09:56:20;15.67;;;14.17;;
46931;SDS011;32670;51.464;11.964;2022-11-20T09:58:50;15.90;;;14.30;;
46931;SDS011;32670;51.464;11.964;2022-11-20T10:01:20;15.93;;;14.43;;
46931;SDS011;32670;51.464;11.964;2022-11-20T10:03:58;15.10;;;13.60;;
46931;SDS011;32670;51.464;11.964;2022-11-20T10:06:42;13.27;;;12.07;;
46931;SDS011;32670;51.464;11.964;2022-11-20T10:22:49;14.10;;;12.80;;
46931;SDS011;32670;51.464;11.964;2022-11-20T10:25:19;13.63;;;12.23;;
46931;SDS011;32670;51.464;11.964;2022-11-20T10:27:54;14.10;;;12.80;;
46931;SDS011;32670;51.464;11.964;2022-11-20T10:30:43;16.17;;;12.27;;
46931;SDS011;32670;51.464;11.964;2022-11-20T10:33:13;14.93;;;12.50;;
46931;SDS011;32670;51.464;11.964;2022-11-20T10:35:44;16.80;;;13.37;;
46931;SDS011;32670;51.464;11.964;2022-11-20T10:38:23;15.23;;;13.70;;
46931;SDS011;32670;51.464;11.964;2022-11-20T10:41:00;15.97;;;14.17;;
46931;SDS011;32670;51.464;11.964;2022-11-20T10:43:46;16.33;;;14.03;;
46931;SDS011;32670;51.464;11.964;2022-11-20T10:46:15;16.47;;;14.70;;
46931;SDS011;32670;51.464;11.964;2022-11-20T10:48:43;16.77;;;13.90;;
46931;SDS011;32670;51.464;11.964;2022-11-20T10:53:58;15.90;;;14.23;;
46931;SDS011;32670;51.464;11.964;2022-11-20T10:57:03;16.37;;;14.80;;
46931;SDS011;32670;51.464;11.964;2022-11-20T10:59:55;17.00;;;14.57;;
46931;SDS011;32670;51.464;11.964;2022-11-20T11:02:34;15.63;;;13.93;;
46931;SDS011;32670;51.464;11.964;2022-11-20T11:07:43;17.17;;;15.30;;
46931;SDS011;32670;51.464;11.964;2022-11-20T11:10:18;16.70;;;15.00;;
46931;SDS011;32670;51.464;11.964;2022-11-20T11:12:49;17.03;;;15.43;;
46931;SDS011;32670;51.464;11.964;2022-11-20T11:15:36;18.03;;;16.17;;
46931;SDS011;32670;51.464;11.964;2022-11-20T11:18:04;16.93;;;15.30;;
46931;SDS011;32670;51.464;11.964;2022-11-20T11:20:33;17.83;;;15.93;;
46931;SDS011;32670;51.464;11.964;2022-11-20T11:22:59;16.07;;;14.57;;
46931;SDS011;32670;51.464;11.964;2022-11-20T11:25:35;15.13;;;13.63;;
46931;SDS011;32670;51.464;11.964;2022-11-20T11:28:17;14.80;;;13.50;;
46931;SDS011;32670;51.464;11.964;2022-11-20T11:30:47;14.37;;;13.07;;
46931;SDS011;32670;51.464;11.964;2022-11-20T11:33:19;16.17;;;14.67;;
46931;SDS011;32670;51.464;11.964;2022-11-20T11:35:53;16.67;;;14.97;;
46931;SDS011;32670;51.464;11.964;2022-11-20T11:41:01;17.60;;;15.80;;
46931;SDS011;32670;51.464;11.964;2022-11-20T11:43:29;12.83;;;11.67;;
46931;SDS011;32670;51.464;11.964;2022-11-20T11:46:26;11.37;;;10.37;;
46931;SDS011;32670;51.464;11.964;2022-11-20T11:49:00;10.03;;;9.13;;
46931;SDS011;32670;51.464;11.964;2022-11-20T11:51:44;9.87;;;9.07;;
46931;SDS011;32670;51.464;11.964;2022-11-20T11:54:25;10.07;;;9.20;;
46931;SDS011;32670;51.464;11.964;2022-11-20T11:57:10;11.37;;;10.27;;
46931;SDS011;32670;51.464;11.964;2022-11-20T11:59:54;11.40;;;10.30;;
46931;SDS011;32670;51.464;11.964;2022-11-20T12:05:43;12.33;;;11.23;;
46931;SDS011;32670;51.464;11.964;2022-11-20T12:07:56;12.37;;;11.17;;
46931;SDS011;32670;51.464;11.964;2022-11-20T12:10:45;12.23;;;11.13;;
46931;SDS011;32670;51.464;11.964;2022-11-20T12:16:07;13.00;;;11.90;;
46931;SDS011;32670;51.464;11.964;2022-11-20T12:18:38;12.80;;;11.60;;
46931;SDS011;32670;51.464;11.964;2022-11-20T12:21:21;13.13;;;12.03;;
46931;SDS011;32670;51.464;11.964;2022-11-20T12:26:49;14.77;;;13.37;;
46931;SDS011;32670;51.464;11.964;2022-11-20T12:29:43;14.70;;;13.27;;
46931;SDS011;32670;51.464;11.964;2022-11-20T12:32:48;15.60;;;14.20;;
46931;SDS011;32670;51.464;11.964;2022-11-20T12:44:19;14.40;;;13.10;;
46931;SDS011;32670;51.464;11.964;2022-11-20T12:47:33;16.23;;;14.73;;
46931;SDS011;32670;51.464;11.964;2022-11-20T12:50:15;16.00;;;14.30;;
46931;SDS011;32670;51.464;11.964;2022-11-20T12:52:49;16.20;;;14.60;;
46931;SDS011;32670;51.464;11.964;2022-11-20T12:55:40;15.87;;;14.23;;
46931;SDS011;32670;51.464;11.964;2022-11-20T12:58:12;15.40;;;13.97;;
46931;SDS011;32670;51.464;11.964;2022-11-20T13:00:54;16.07;;;14.40;;
46931;SDS011;32670;51.464;11.964;2022-11-20T13:03:34;16.93;;;15.37;;
46931;SDS011;32670;51.464;11.964;2022-11-20T13:06:14;16.73;;;15.03;;
46931;SDS011;32670;51.464;11.964;2022-11-20T13:08:47;16.63;;;15.03;;
46931;SDS011;32670;51.464;11.964;2022-11-20T13:14:30;17.73;;;16.10;;
46931;SDS011;32670;51.464;11.964;2022-11-20T13:20:18;18.37;;;16.67;;
46931;SDS011;32670;51.464;11.964;2022-11-20T13:22:48;17.87;;;16.23;;
46931;SDS011;32670;51.464;11.964;2022-11-20T13:28:31;18.57;;;16.83;;
46931;SDS011;32670;51.464;11.964;2022-11-20T13:30:57;19.03;;;17.30;;
46931;SDS011;32670;51.464;11.964;2022-11-20T13:33:30;19.00;;;17.20;;
46931;SDS011;32670;51.464;11.964;2022-11-20T13:36:01;19.77;;;17.87;;
46931;SDS011;32670;51.464;11.964;2022-11-20T13:38:46;21.03;;;18.83;;
46931;SDS011;32670;51.464;11.964;2022-11-20T13:41:22;21.13;;;19.03;;
46931;SDS011;32670;51.464;11.964;2022-11-20T13:44:14;21.70;;;19.50;;
46931;SDS011;32670;51.464;11.964;2022-11-20T13:46:48;21.47;;;19.10;;
46931;SDS011;32670;51.464;11.964;2022-11-20T13:52:27;20.23;;;18.17;;
46931;SDS011;32670;51.464;11.964;2022-11-20T13:55:02;23.13;;;20.83;;
46931;SDS011;32670;51.464;11.964;2022-11-20T14:00:48;22.43;;;20.07;;
46931;SDS011;32670;51.464;11.964;2022-11-20T14:03:25;23.33;;;20.67;;
46931;SDS011;32670;51.464;11.964;2022-11-20T14:06:02;22.17;;;20.07;;
46931;SDS011;32670;51.464;11.964;2022-11-20T14:11:18;26.60;;;21.83;;
46931;SDS011;32670;51.464;11.964;2022-11-20T14:14:10;22.87;;;20.50;;
46931;SDS011;32670;51.464;11.964;2022-11-20T14:16:41;24.50;;;22.17;;
46931;SDS011;32670;51.464;11.964;2022-11-20T14:19:21;24.83;;;22.50;;
46931;SDS011;32670;51.464;11.964;2022-11-20T14:21:48;25.77;;;23.17;;
46931;SDS011;32670;51.464;11.964;2022-11-20T14:24:23;25.50;;;23.10;;
46931;SDS011;32670;51.464;11.964;2022-11-20T14:26:49;25.20;;;22.70;;
46931;SDS011;32670;51.464;11.964;2022-11-20T14:29:16;26.37;;;23.73;;
46931;SDS011;32670;51.464;11.964;2022-11-20T14:31:44;27.67;;;24.97;;
46931;SDS011;32670;51.464;11.964;2022-11-20T14:34:18;25.47;;;22.97;;
46931;SDS011;32670;51.464;11.964;2022-11-20T14:36:46;26.40;;;23.73;;
46931;SDS011;32670;51.464;11.964;2022-11-20T14:39:22;25.70;;;23.20;;
46931;SDS011;32670;51.464;11.964;2022-11-20T14:41:54;27.00;;;24.40;;
46931;SDS011;32670;51.464;11.964;2022-11-20T14:44:21;26.03;;;23.27;;
46931;SDS011;32670;51.464;11.964;2022-11-20T14:46:59;26.83;;;22.27;;
46931;SDS011;32670;51.464;11.964;2022-11-20T14:49:26;25.93;;;23.30;;
46931;SDS011;32670;51.464;11.964;2022-11-20T14:52:00;27.90;;;24.90;;
46931;SDS011;32670;51.464;11.964;2022-11-20T14:54:27;27.33;;;24.67;;
46931;SDS011;32670;51.464;11.964;2022-11-20T14:56:59;26.53;;;23.80;;
46931;SDS011;32670;51.464;11.964;2022-11-20T14:59:27;26.87;;;24.17;;
46931;SDS011;32670;51.464;11.964;2022-11-20T15:04:30;27.27;;;24.60;;
46931;SDS011;32670;51.464;11.964;2022-11-20T15:06:57;26.97;;;24.37;;
46931;SDS011;32670;51.464;11.964;2022-11-20T15:09:25;27.03;;;24.40;;
46931;SDS011;32670;51.464;11.964;2022-11-20T15:11:57;27.23;;;24.43;;
46931;SDS011;32670;51.464;11.964;2022-11-20T15:14:26;27.53;;;24.63;;
46931;SDS011;32670;51.464;11.964;2022-11-20T15:16:53;27.47;;;24.87;;
46931;SDS011;32670;51.464;11.964;2022-11-20T15:19:24;27.97;;;25.17;;
46931;SDS011;32670;51.464;11.964;2022-11-20T15:21:51;28.13;;;25.43;;
46931;SDS011;32670;51.464;11.964;2022-11-20T15:24:17;28.60;;;25.80;;
46931;SDS011;32670;51.464;11.964;2022-11-20T15:26:43;28.20;;;25.47;;
46931;SDS011;32670;51.464;11.964;2022-11-20T15:29:13;27.07;;;24.33;;
46931;SDS011;32670;51.464;11.964;2022-11-20T15:31:43;28.00;;;25.20;;
46931;SDS011;32670;51.464;11.964;2022-11-20T15:34:10;26.77;;;24.23;;
46931;SDS011;32670;51.464;11.964;2022-11-20T15:36:37;28.00;;;25.20;;
46931;SDS011;32670;51.464;11.964;2022-11-20T15:39:03;27.50;;;24.80;;
46931;SDS011;32670;51.464;11.964;2022-11-20T15:41:29;27.63;;;24.93;;
46931;SDS011;32670;51.464;11.964;2022-11-20T15:43:54;27.63;;;24.93;;
46931;SDS011;32670;51.464;11.964;2022-11-20T15:46:23;27.53;;;24.73;;
46931;SDS011;32670;51.464;11.964;2022-11-20T15:48:54;27.23;;;24.53;;
46931;SDS011;32670;51.464;11.964;2022-11-20T15:51:24;27.60;;;24.83;;